createdAt,value
2022-08-22T00:00:16.888Z,70.57
2022-08-22T00:02:45.628Z,72.17
2022-08-22T00:02:45.810Z,72.45
2022-08-22T00:02:53.535Z,72.50
2022-08-22T00:03:04.818Z,72.65
2022-08-22T00:03:15.595Z,70.27
2022-08-22T00:05:37.668Z,70.43
2022-08-22T00:08:09.281Z,70.44
2022-08-22T00:10:44.560Z,70.43
2022-08-22T00:13:22.664Z,70.17
2022-08-22T00:15:57.829Z,70.62
2022-08-22T00:19:02.039Z,70.54
2022-08-22T00:21:36.228Z,70.44
2022-08-22T00:24:33.900Z,70.29
2022-08-22T00:27:18.128Z,70.02
2022-08-22T00:29:49.276Z,70.50
2022-08-22T00:32:20.556Z,70.30
2022-08-22T00:34:58.772Z,70.58
2022-08-22T00:37:30.860Z,70.24
2022-08-22T00:40:22.987Z,70.57
2022-08-22T00:43:23.565Z,70.33
2022-08-22T00:46:13.336Z,70.40
2022-08-22T00:49:13.746Z,70.37
2022-08-22T00:51:55.989Z,70.16
2022-08-22T00:54:34.604Z,70.14
2022-08-22T00:57:29.154Z,70.12
2022-08-22T01:00:13.468Z,70.42
2022-08-22T01:02:55.151Z,70.46
2022-08-22T01:05:40.525Z,70.37
2022-08-22T01:08:30.213Z,70.42
2022-08-22T01:11:12.068Z,70.54
2022-08-22T01:14:12.030Z,70.20
2022-08-22T01:17:00.784Z,70.46
2022-08-22T01:20:05.600Z,70.52
2022-08-22T01:22:59.656Z,70.49
2022-08-22T01:25:44.983Z,70.42
2022-08-22T01:28:32.281Z,70.49
2022-08-22T01:31:11.232Z,70.07
2022-08-22T01:34:02.617Z,70.26
2022-08-22T01:37:01.635Z,70.08
2022-08-22T01:40:00.599Z,70.17
2022-08-22T01:42:29.851Z,70.09
2022-08-22T01:45:31.374Z,70.09
2022-08-22T01:48:09.519Z,70.25
2022-08-22T01:51:02.696Z,70.10
2022-08-22T01:53:51.788Z,70.09
2022-08-22T01:56:19.932Z,70.21
2022-08-22T01:59:11.005Z,70.17
2022-08-22T02:02:01.020Z,70.26
2022-08-22T02:05:02.956Z,69.94
2022-08-22T02:07:49.232Z,70.17
2022-08-22T02:10:18.144Z,70.19
2022-08-22T02:13:05.200Z,70.02
2022-08-22T02:15:41.067Z,70.18
2022-08-22T02:18:14.584Z,70.07
2022-08-22T02:21:04.096Z,70.22
2022-08-22T02:23:52.353Z,70.05
2022-08-22T02:26:37.445Z,70.30
2022-08-22T02:29:11.159Z,69.93
2022-08-22T02:31:49.277Z,69.93
2022-08-22T02:34:34.105Z,70.04
2022-08-22T02:37:21.875Z,70.14
2022-08-22T02:40:10.060Z,70.22
2022-08-22T02:42:44.170Z,70.25
2022-08-22T02:45:25.057Z,70.10
2022-08-22T02:48:14.697Z,70.01
2022-08-22T02:50:47.722Z,70.07
2022-08-22T02:53:45.808Z,69.82
2022-08-22T02:56:28.368Z,69.81
2022-08-22T02:59:19.756Z,69.73
2022-08-22T03:01:46.404Z,70.13
2022-08-22T03:04:30.152Z,69.83
2022-08-22T03:07:20.147Z,69.79
2022-08-22T03:10:23.020Z,69.77
2022-08-22T03:13:24.777Z,70.02
2022-08-22T03:16:13.632Z,70.05
2022-08-22T03:19:02.233Z,70.14
2022-08-22T03:22:06.230Z,69.87
2022-08-22T03:25:04.820Z,70.01
2022-08-22T03:27:50.860Z,70.11
2022-08-22T03:30:30.609Z,70.10
2022-08-22T03:33:13.349Z,70.13
2022-08-22T03:35:45.891Z,70.09
2022-08-22T03:38:33.972Z,70.11
2022-08-22T03:41:23.320Z,70.02
2022-08-22T03:44:08.073Z,70.16
2022-08-22T03:47:00.509Z,69.72
2022-08-22T03:49:45.696Z,69.91
2022-08-22T03:52:33.953Z,69.87
2022-08-22T03:55:19.124Z,70.08
2022-08-22T03:58:04.485Z,69.89
2022-08-22T04:00:52.871Z,69.80
2022-08-22T04:03:41.977Z,69.92
2022-08-22T04:06:25.845Z,70.09
2022-08-22T04:09:04.845Z,70.13
2022-08-22T04:12:13.485Z,70.01
2022-08-22T04:15:17.361Z,69.99
2022-08-22T04:18:22.494Z,69.85
2022-08-22T04:20:53.135Z,69.98
2022-08-22T04:23:48.757Z,69.72
2022-08-22T04:26:22.884Z,69.60
2022-08-22T04:28:53.933Z,69.86
2022-08-22T04:31:28.932Z,69.59
2022-08-22T04:34:07.076Z,69.60
2022-08-22T04:36:50.103Z,67.40
2022-08-22T04:39:19.420Z,65.87
2022-08-22T04:41:51.847Z,64.81
2022-08-22T04:44:36.827Z,64.01
2022-08-22T04:47:14.793Z,63.70
2022-08-22T04:49:58.248Z,63.15
2022-08-22T04:52:31.944Z,63.06
2022-08-22T04:55:26.403Z,62.90
2022-08-22T04:58:20.859Z,62.57
2022-08-22T05:01:16.594Z,62.32
2022-08-22T05:03:53.625Z,61.83
2022-08-22T05:06:21.460Z,62.16
2022-08-22T05:08:48.460Z,62.34
2022-08-22T05:11:22.607Z,61.92
2022-08-22T05:13:58.428Z,62.13
2022-08-22T05:16:30.472Z,62.34
2022-08-22T05:19:02.971Z,62.92
2022-08-22T05:21:32.527Z,63.04
2022-08-22T05:24:03.086Z,63.02
2022-08-22T05:26:29.658Z,62.57
2022-08-22T05:29:00.036Z,62.79
2022-08-22T05:31:29.183Z,63.11
2022-08-22T05:34:04.548Z,63.14
2022-08-22T05:36:34.241Z,62.84
2022-08-22T05:39:10.248Z,62.84
2022-08-22T05:41:37.939Z,62.93
2022-08-22T05:44:06.681Z,62.99
2022-08-22T05:46:46.976Z,63.02
2022-08-22T05:49:38.898Z,63.51
2022-08-22T05:52:25.695Z,63.58
2022-08-22T05:55:02.422Z,62.69
2022-08-22T05:57:31.145Z,62.32
2022-08-22T06:00:11.072Z,61.54
2022-08-22T06:02:57.201Z,62.37
2022-08-22T06:05:26.623Z,62.53
2022-08-22T06:07:55.611Z,63.18
2022-08-22T06:10:48.126Z,63.02
2022-08-22T06:13:40.145Z,62.52
2022-08-22T06:16:22.672Z,62.64
2022-08-22T06:18:49.801Z,63.51
2022-08-22T06:21:38.613Z,63.86
2022-08-22T06:24:08.647Z,63.88
2022-08-22T06:26:39.501Z,64.01
2022-08-22T06:29:07.210Z,64.67
2022-08-22T06:31:41.621Z,64.48
2022-08-22T06:34:13.767Z,64.39
2022-08-22T06:36:41.726Z,64.99
2022-08-22T06:39:20.361Z,64.86
2022-08-22T06:41:55.064Z,64.26
2022-08-22T06:44:26.340Z,63.59
2022-08-22T06:46:54.428Z,62.96
2022-08-22T06:49:21.893Z,62.28
2022-08-22T06:51:48.481Z,61.62
2022-08-22T06:54:18.232Z,62.17
2022-08-22T06:56:46.281Z,62.61
2022-08-22T06:59:14.833Z,63.04
2022-08-22T07:02:04.302Z,63.22
2022-08-22T07:04:30.929Z,63.29
2022-08-22T07:06:58.752Z,63.31
2022-08-22T07:09:29.266Z,64.07
2022-08-22T07:11:57.257Z,63.78
2022-08-22T07:14:35.397Z,64.25
2022-08-22T07:17:04.404Z,64.17
2022-08-22T07:19:35.227Z,64.24
2022-08-22T07:22:14.673Z,64.64
2022-08-22T07:24:48.660Z,64.60
2022-08-22T07:27:30.877Z,64.29
2022-08-22T07:30:04.054Z,64.66
2022-08-22T07:32:43.032Z,64.86
2022-08-22T07:35:35.768Z,64.98
2022-08-22T07:38:18.348Z,64.79
2022-08-22T07:40:53.900Z,64.70
2022-08-22T07:43:38.100Z,64.95
2022-08-22T07:46:13.783Z,64.57
2022-08-22T07:49:08.617Z,64.83
2022-08-22T07:51:50.771Z,64.88
2022-08-22T07:54:27.046Z,65.04
2022-08-22T07:56:57.724Z,65.28
2022-08-22T07:59:24.412Z,65.53
2022-08-22T08:01:53.477Z,65.25
2022-08-22T08:04:23.296Z,65.25
2022-08-22T08:06:52.681Z,65.10
2022-08-22T08:09:19.688Z,65.11
2022-08-22T08:11:46.229Z,64.99
2022-08-22T08:14:14.216Z,65.48
2022-08-22T08:16:49.580Z,65.47
2022-08-22T08:19:16.575Z,65.79
2022-08-22T08:21:54.788Z,65.52
2022-08-22T08:24:36.292Z,65.05
2022-08-22T08:27:31.753Z,65.31
2022-08-22T08:30:01.923Z,65.54
2022-08-22T08:32:31.465Z,65.42
2022-08-22T08:34:58.032Z,65.59
2022-08-22T08:37:33.317Z,65.41
2022-08-22T08:40:00.212Z,65.49
2022-08-22T08:42:29.375Z,65.50
2022-08-22T08:45:04.713Z,65.38
2022-08-22T08:47:50.204Z,65.03
2022-08-22T08:50:29.985Z,65.41
2022-08-22T08:53:31.915Z,65.23
2022-08-22T08:56:32.887Z,65.39
2022-08-22T08:59:10.351Z,65.13
2022-08-22T09:02:02.676Z,65.26
2022-08-22T09:04:33.922Z,65.23
2022-08-22T09:07:01.446Z,65.35
2022-08-22T09:09:59.408Z,65.04
2022-08-22T09:12:57.110Z,64.49
2022-08-22T09:16:09.933Z,64.44
2022-08-22T09:18:53.832Z,64.58
2022-08-22T09:21:44.747Z,64.25
2022-08-22T09:24:29.939Z,63.90
2022-08-22T09:26:58.384Z,64.24
2022-08-22T09:29:55.515Z,63.51
2022-08-22T09:32:54.662Z,63.37
2022-08-22T09:35:32.897Z,63.26
2022-08-22T09:38:31.892Z,62.47
2022-08-22T09:41:25.637Z,63.15
2022-08-22T09:44:21.197Z,63.07
2022-08-22T09:47:09.685Z,63.21
2022-08-22T09:49:51.820Z,62.76
2022-08-22T09:52:40.164Z,62.61
2022-08-22T09:55:27.885Z,62.82
2022-08-22T09:58:03.400Z,62.57
2022-08-22T10:00:40.758Z,62.38
2022-08-22T10:03:19.576Z,62.19
2022-08-22T10:05:55.634Z,62.50
2022-08-22T10:08:45.999Z,62.20
2022-08-22T10:11:23.769Z,61.99
2022-08-22T10:14:11.205Z,61.86
2022-08-22T10:17:07.322Z,61.61
2022-08-22T10:19:46.777Z,62.01
2022-08-22T10:22:35.135Z,61.74
2022-08-22T10:25:14.302Z,61.86
2022-08-22T10:27:42.318Z,61.79
2022-08-22T10:30:13.193Z,61.64
2022-08-22T10:32:59.131Z,61.68
2022-08-22T10:35:50.221Z,61.81
2022-08-22T10:38:25.133Z,61.49
2022-08-22T10:40:56.298Z,61.85
2022-08-22T10:43:31.348Z,61.58
2022-08-22T10:46:03.555Z,61.98
2022-08-22T10:48:32.603Z,61.60
2022-08-22T10:51:16.479Z,61.78
2022-08-22T10:53:53.932Z,62.21
2022-08-22T10:57:02.606Z,62.19
2022-08-22T10:59:33.253Z,62.47
2022-08-22T11:02:42.263Z,62.41
2022-08-22T11:05:21.053Z,62.14
2022-08-22T11:07:55.376Z,62.46
2022-08-22T11:10:40.047Z,62.20
2022-08-22T11:13:27.908Z,62.25
2022-08-22T11:16:04.706Z,61.81
2022-08-22T11:19:01.811Z,61.97
2022-08-22T11:21:45.992Z,62.13
2022-08-22T11:24:35.647Z,61.86
2022-08-22T11:27:39.949Z,62.31
2022-08-22T11:30:10.853Z,62.36
2022-08-22T11:33:08.609Z,62.07
2022-08-22T11:35:56.134Z,62.25
2022-08-22T11:38:37.892Z,62.27
2022-08-22T11:41:36.668Z,62.69
2022-08-22T11:44:20.736Z,62.40
2022-08-22T11:46:49.142Z,62.51
2022-08-22T11:49:33.943Z,62.39
2022-08-22T11:52:26.663Z,62.39
2022-08-22T11:55:22.612Z,62.76
2022-08-22T11:57:51.391Z,62.44
2022-08-22T12:00:23.768Z,62.73
2022-08-22T12:03:15.540Z,63.03
2022-08-22T12:06:00.324Z,62.91
2022-08-22T12:08:29.762Z,62.59
2022-08-22T12:10:59.949Z,62.80
2022-08-22T12:13:43.138Z,62.86
2022-08-22T12:16:33.837Z,62.94
2022-08-22T12:19:19.704Z,62.95
2022-08-22T12:22:17.044Z,62.86
2022-08-22T12:25:02.739Z,62.62
2022-08-22T12:27:39.928Z,62.84
2022-08-22T12:30:21.631Z,62.76
2022-08-22T12:32:57.178Z,63.17
2022-08-22T12:35:32.522Z,63.08
2022-08-22T12:38:26.645Z,63.08
2022-08-22T12:41:10.840Z,63.18
2022-08-22T12:44:05.917Z,63.39
2022-08-22T12:47:09.136Z,63.04
2022-08-22T12:50:13.589Z,63.11
2022-08-22T12:53:18.145Z,63.49
2022-08-22T12:56:01.672Z,63.37
2022-08-22T12:59:00.864Z,63.15
2022-08-22T13:01:40.147Z,63.21
2022-08-22T13:04:19.179Z,63.08
2022-08-22T13:07:09.799Z,63.27
2022-08-22T13:09:40.896Z,63.29
2022-08-22T13:12:20.076Z,63.50
2022-08-22T13:14:49.735Z,63.34
2022-08-22T13:17:24.349Z,63.37
2022-08-22T13:20:00.147Z,63.40
2022-08-22T13:22:29.042Z,63.28
2022-08-22T13:25:06.083Z,63.44
2022-08-22T13:27:50.947Z,63.17
2022-08-22T13:30:34.913Z,63.15
2022-08-22T13:33:09.863Z,63.14
2022-08-22T13:35:53.805Z,63.66
2022-08-22T13:38:27.045Z,63.43
2022-08-22T13:40:55.491Z,63.35
2022-08-22T13:43:34.445Z,63.37
2022-08-22T13:46:03.246Z,63.70
2022-08-22T13:48:46.742Z,63.27
2022-08-22T13:51:51.706Z,63.62
2022-08-22T13:54:45.513Z,63.52
2022-08-22T13:57:28.433Z,63.56
2022-08-22T14:00:28.455Z,63.28
2022-08-22T14:03:08.012Z,63.43
2022-08-22T14:05:40.497Z,63.44
2022-08-22T14:08:45.245Z,63.39
2022-08-22T14:11:20.588Z,63.76
2022-08-22T14:13:53.488Z,63.75
2022-08-22T14:16:24.340Z,63.89
2022-08-22T14:18:55.398Z,63.79
2022-08-22T14:21:29.383Z,64.07
2022-08-22T14:24:18.987Z,63.77
2022-08-22T14:27:13.431Z,63.84
2022-08-22T14:29:50.826Z,64.05
2022-08-22T14:32:26.687Z,63.88
2022-08-22T14:35:05.485Z,64.07
2022-08-22T14:37:40.099Z,64.09
2022-08-22T14:40:07.952Z,63.92
2022-08-22T14:42:48.095Z,63.95
2022-08-22T14:45:22.376Z,64.17
2022-08-22T14:47:55.510Z,63.91
2022-08-22T14:50:39.748Z,64.27
2022-08-22T14:53:22.130Z,63.95
2022-08-22T14:56:03.661Z,64.20
2022-08-22T14:58:36.236Z,64.33
2022-08-22T15:01:10.392Z,64.54
2022-08-22T15:03:38.732Z,64.43
2022-08-22T15:06:12.784Z,64.51
2022-08-22T15:08:46.412Z,64.24
2022-08-22T15:11:22.004Z,64.48
2022-08-22T15:14:00.016Z,64.33
2022-08-22T15:16:44.664Z,64.12
2022-08-22T15:19:47.026Z,64.50
2022-08-22T15:22:27.722Z,64.30
2022-08-22T15:25:06.596Z,64.47
2022-08-22T15:27:36.204Z,64.61
2022-08-22T15:30:07.481Z,64.36
2022-08-22T15:32:48.846Z,64.41
2022-08-22T15:35:38.926Z,64.43
2022-08-22T15:38:28.077Z,64.26
2022-08-22T15:40:55.044Z,64.49
2022-08-22T15:43:23.873Z,64.61
2022-08-22T15:45:53.051Z,64.49
2022-08-22T15:48:31.185Z,64.19
2022-08-22T15:51:04.845Z,64.45
2022-08-22T15:53:44.892Z,64.38
2022-08-22T15:56:11.327Z,64.55
2022-08-22T15:58:40.421Z,64.40
2022-08-22T16:01:19.141Z,64.65
2022-08-22T16:04:03.971Z,64.56
2022-08-22T16:06:56.560Z,64.68
2022-08-22T16:09:38.273Z,64.29
2022-08-22T16:12:08.823Z,64.40
2022-08-22T16:14:35.540Z,64.44
2022-08-22T16:17:08.203Z,64.44
2022-08-22T16:19:35.056Z,64.43
2022-08-22T16:22:03.648Z,64.68
2022-08-22T16:24:32.187Z,64.34
2022-08-22T16:27:05.817Z,64.42
2022-08-22T16:29:41.311Z,64.59
2022-08-22T16:32:11.207Z,64.42
2022-08-22T16:34:37.646Z,64.67
2022-08-22T16:37:18.078Z,64.61
2022-08-22T16:39:49.937Z,64.41
2022-08-22T16:42:18.297Z,64.60
2022-08-22T16:45:05.319Z,64.31
2022-08-22T16:47:40.710Z,64.73
2022-08-22T16:50:16.584Z,64.35
2022-08-22T16:52:59.598Z,64.65
2022-08-22T16:55:28.847Z,64.49
2022-08-22T16:58:40.226Z,64.57
2022-08-22T17:01:33.773Z,64.05
2022-08-22T17:04:35.644Z,64.62
2022-08-22T17:07:05.981Z,64.90
2022-08-22T17:10:18.088Z,64.78
2022-08-22T17:13:15.085Z,64.70
2022-08-22T17:16:19.161Z,64.42
2022-08-22T17:18:45.671Z,64.70
2022-08-22T17:21:17.064Z,64.60
2022-08-22T17:23:59.348Z,64.75
2022-08-22T17:26:31.538Z,64.58
2022-08-22T17:29:00.880Z,64.34
2022-08-22T17:31:36.886Z,64.38
2022-08-22T17:34:18.594Z,64.37
2022-08-22T17:36:55.868Z,64.15
2022-08-22T17:39:25.252Z,63.89
2022-08-22T17:41:57.755Z,63.91
2022-08-22T17:44:42.109Z,63.59
2022-08-22T17:47:14.913Z,63.72
2022-08-22T17:49:41.347Z,63.64
2022-08-22T17:52:15.919Z,63.30
2022-08-22T17:55:09.028Z,63.42
2022-08-22T17:57:44.221Z,63.36
2022-08-22T18:00:19.216Z,63.35
2022-08-22T18:02:51.175Z,63.05
2022-08-22T18:05:20.405Z,63.18
2022-08-22T18:08:05.409Z,63.06
2022-08-22T18:10:50.468Z,63.25
2022-08-22T18:13:46.496Z,62.91
2022-08-22T18:16:32.259Z,63.35
2022-08-22T18:19:09.882Z,62.88
2022-08-22T18:21:44.048Z,63.12
2022-08-22T18:24:10.474Z,63.10
2022-08-22T18:26:39.217Z,63.04
2022-08-22T18:29:11.365Z,63.09
2022-08-22T18:31:59.120Z,63.34
2022-08-22T18:34:47.389Z,63.11
2022-08-22T18:37:33.040Z,62.82
2022-08-22T18:40:07.169Z,62.79
2022-08-22T18:42:37.144Z,63.02
2022-08-22T18:45:03.912Z,63.08
2022-08-22T18:47:35.129Z,63.03
2022-08-22T18:50:23.810Z,62.78
2022-08-22T18:52:53.443Z,62.64
2022-08-22T18:56:04.081Z,62.65
2022-08-22T18:59:05.573Z,62.82
2022-08-22T19:01:50.911Z,62.95
2022-08-22T19:04:53.824Z,62.64
2022-08-22T19:07:48.179Z,62.83
2022-08-22T19:10:37.357Z,62.82
2022-08-22T19:13:09.728Z,63.01
2022-08-22T19:16:08.305Z,63.00
2022-08-22T19:18:52.876Z,62.75
2022-08-22T19:21:53.998Z,62.68
2022-08-22T19:24:20.441Z,62.76
2022-08-22T19:26:48.151Z,62.58
2022-08-22T19:29:17.539Z,62.63
2022-08-22T19:31:48.307Z,62.73
2022-08-22T19:34:22.034Z,62.82
2022-08-22T19:37:11.493Z,62.86
2022-08-22T19:40:09.219Z,62.68
2022-08-22T19:42:37.065Z,62.68
2022-08-22T19:45:08.323Z,62.59
2022-08-22T19:47:41.113Z,62.90
2022-08-22T19:50:16.866Z,62.68
2022-08-22T19:52:56.627Z,62.46
2022-08-22T19:55:38.092Z,63.07
2022-08-22T19:58:30.254Z,62.91
2022-08-22T20:01:05.097Z,62.98
2022-08-22T20:03:55.197Z,63.12
2022-08-22T20:06:51.680Z,63.01
2022-08-22T20:09:39.873Z,63.03
2022-08-22T20:12:15.789Z,62.92
2022-08-22T20:14:43.400Z,62.92
2022-08-22T20:17:11.860Z,62.90
2022-08-22T20:22:35.101Z,62.53
2022-08-22T20:25:04.796Z,62.65
2022-08-22T20:27:34.621Z,62.66
2022-08-22T20:30:19.581Z,62.68
2022-08-22T20:32:53.795Z,62.77
2022-08-22T20:35:22.991Z,62.94
2022-08-22T20:38:07.364Z,62.89
2022-08-22T20:40:59.587Z,62.85
2022-08-22T20:43:45.437Z,62.60
2022-08-22T20:46:34.558Z,62.71
2022-08-22T20:49:01.678Z,62.92
2022-08-22T20:51:32.429Z,63.03
2022-08-22T20:54:01.707Z,63.00
2022-08-22T20:56:53.343Z,62.55
2022-08-22T20:59:38.809Z,62.49
2022-08-22T21:02:32.244Z,62.75
2022-08-22T21:05:23.086Z,62.57
2022-08-22T21:08:12.670Z,62.82
2022-08-22T21:10:58.337Z,63.15
2022-08-22T21:13:35.339Z,62.80
2022-08-22T21:16:11.745Z,62.93
2022-08-22T21:18:45.917Z,63.06
2022-08-22T21:21:17.448Z,62.81
2022-08-22T21:24:00.038Z,63.10
2022-08-22T21:26:31.740Z,63.04
2022-08-22T21:29:07.828Z,63.09
2022-08-22T21:31:49.021Z,63.08
2022-08-22T21:34:20.722Z,62.73
2022-08-22T21:36:47.291Z,62.78
2022-08-22T21:39:22.227Z,63.02
2022-08-22T21:41:51.629Z,63.03
2022-08-22T21:44:28.274Z,62.86
2022-08-22T21:46:55.083Z,62.92
2022-08-22T21:49:26.173Z,62.76
2022-08-22T21:51:52.715Z,63.04
2022-08-22T21:54:22.205Z,62.73
2022-08-22T21:56:49.859Z,62.88
2022-08-22T21:59:50.622Z,62.83
2022-08-22T22:02:37.369Z,62.75
2022-08-22T22:05:11.336Z,63.10
2022-08-22T22:07:39.536Z,63.14
2022-08-22T22:10:07.422Z,63.11
2022-08-22T22:12:33.999Z,62.99
2022-08-22T22:15:00.535Z,63.13
2022-08-22T22:17:27.099Z,63.13
2022-08-22T22:19:54.247Z,62.97
2022-08-22T22:22:21.855Z,62.87
2022-08-22T22:24:48.512Z,63.02
2022-08-22T22:27:17.158Z,63.13
2022-08-22T22:29:43.809Z,62.80
2022-08-22T22:32:10.400Z,63.02
2022-08-22T22:34:39.061Z,62.96
2022-08-22T22:37:09.448Z,62.93
2022-08-22T22:39:36.284Z,62.95
2022-08-22T22:42:03.464Z,63.04
2022-08-22T22:44:30.041Z,63.05
2022-08-22T22:47:02.117Z,63.29
2022-08-22T22:49:29.814Z,62.85
2022-08-22T22:51:56.399Z,63.27
2022-08-22T22:54:27.219Z,62.93
2022-08-22T22:56:54.154Z,62.93
2022-08-22T22:59:24.764Z,62.91
2022-08-22T23:05:39.746Z,62.46
2022-08-22T23:08:06.276Z,63.00
2022-08-22T23:10:32.957Z,63.12
2022-08-22T23:12:59.572Z,63.25
2022-08-22T23:15:26.284Z,63.29
2022-08-22T23:17:52.800Z,63.00
2022-08-22T23:20:19.532Z,62.88
2022-08-22T23:22:46.186Z,63.14
2022-08-22T23:25:12.732Z,63.00
2022-08-22T23:27:39.422Z,62.94
2022-08-22T23:30:08.566Z,63.44
2022-08-22T23:32:36.783Z,63.17
2022-08-22T23:35:03.467Z,63.06
2022-08-22T23:37:30.004Z,63.42
2022-08-22T23:39:56.605Z,63.19
2022-08-22T23:42:23.213Z,63.32
2022-08-22T23:44:49.816Z,62.97
2022-08-22T23:47:16.416Z,63.57
2022-08-22T23:49:43.139Z,62.91
2022-08-22T23:52:10.584Z,63.39
2022-08-22T23:54:37.202Z,63.04
2022-08-22T23:57:04.424Z,63.47
2022-08-22T23:59:38.961Z,62.93
